Time;durP1;ratioP1;P1;durP2;ratioP2;P2;SDS_P1;SDS_P2;PMS_P1;PMS_P2;Temp;Humidity;BMP_temperature;BMP_pressure;BME280_temperature;BME280_humidity;BME280_pressure;Samples;Min_cycle;Max_cycle;Signal;HPM_P1;HPM_P2
2021/08/23 00:01:20;;;;;;;6.75;5.85;;;;;;;24.68;41.73;99825.50;5092717;28;20038;-74
2021/08/23 00:03:46;;;;;;;6.78;5.55;;;;;;;24.63;41.68;99829.00;5092757;28;20148;-74
2021/08/23 00:06:11;;;;;;;8.15;6.35;;;;;;;24.60;42.01;99829.50;5092741;28;20031;-73
2021/08/23 00:08:37;;;;;;;6.72;6.05;;;;;;;24.52;42.20;99821.06;5092674;28;20064;-74
2021/08/23 00:11:02;;;;;;;8.00;5.97;;;;;;;24.40;42.24;99822.09;5092479;28;20019;-74
2021/08/23 00:13:28;;;;;;;9.40;6.13;;;;;;;24.12;42.15;99781.16;5092400;28;20035;-74
2021/08/23 00:15:55;;;;;;;8.70;5.72;;;;;;;24.31;42.24;99814.75;5092371;28;20496;-74
2021/08/23 00:18:22;;;;;;;6.90;6.13;;;;;;;24.30;42.55;99821.22;5092420;28;20020;-73
2021/08/23 00:20:54;;;;;;;7.75;6.07;;;;;;;24.04;42.49;99779.78;5092510;28;20031;-74
2021/08/23 00:23:22;;;;;;;6.22;5.63;;;;;;;24.04;42.69;99794.06;5092514;28;20028;-74
2021/08/23 00:25:48;;;;;;;7.57;6.13;;;;;;;24.26;42.52;99815.50;5092278;28;20032;-73
2021/08/23 00:28:14;;;;;;;7.70;6.28;;;;;;;24.05;42.69;99770.59;5092329;28;20027;-74
2021/08/23 00:30:39;;;;;;;6.93;6.30;;;;;;;24.31;42.47;99812.06;5091987;28;20031;-74
2021/08/23 00:33:05;;;;;;;6.72;6.13;;;;;;;24.07;42.50;99769.28;5092117;28;20448;-73
2021/08/23 00:35:30;;;;;;;6.93;6.10;;;;;;;24.21;42.68;99810.09;5091866;28;20464;-73
2021/08/23 00:37:57;;;;;;;7.00;6.30;;;;;;;23.95;42.70;99784.03;5091921;28;20578;-73
2021/08/23 00:40:26;;;;;;;8.20;6.18;;;;;;;23.72;42.83;99755.53;5091938;28;20056;-74
2021/08/23 00:42:52;;;;;;;7.40;6.40;;;;;;;24.00;42.94;99811.03;5092094;28;20099;-73
2021/08/23 00:45:22;;;;;;;7.70;6.15;;;;;;;23.93;43.07;99799.66;5092080;28;20112;-73
2021/08/23 00:47:47;;;;;;;8.30;6.30;;;;;;;23.93;43.19;99823.94;5092037;28;20051;-74
2021/08/23 00:50:13;;;;;;;7.07;6.03;;;;;;;23.85;43.35;99806.34;5092030;28;20517;-74
2021/08/23 00:52:39;;;;;;;8.48;5.93;;;;;;;23.83;43.34;99810.38;5091947;28;20028;-73
2021/08/23 00:55:05;;;;;;;7.63;6.30;;;;;;;23.79;43.41;99807.38;5090881;28;20481;-74
2021/08/23 00:57:31;;;;;;;6.35;5.75;;;;;;;23.70;43.49;99807.00;5091779;28;20477;-74
2021/08/23 00:59:56;;;;;;;6.45;5.80;;;;;;;23.66;43.67;99805.09;5091591;28;20028;-73
2021/08/23 01:02:29;;;;;;;7.65;6.63;;;;;;;23.63;43.57;99805.59;5091750;28;20019;-74
2021/08/23 01:05:09;;;;;;;7.20;6.53;;;;;;;23.28;43.87;99771.03;5091778;28;20031;-74
2021/08/23 01:07:40;;;;;;;8.07;6.65;;;;;;;23.43;44.05;99798.94;5091638;28;20047;-74
2021/08/23 01:10:09;;;;;;;11.45;7.85;;;;;;;23.23;44.12;99768.31;5091773;28;20051;-74
2021/08/23 01:12:37;;;;;;;8.30;6.45;;;;;;;23.36;44.19;99798.34;5091592;28;20089;-73
2021/08/23 01:15:03;;;;;;;8.88;6.80;;;;;;;23.10;44.44;99764.16;5091677;28;20061;-74
2021/08/23 01:17:29;;;;;;;7.55;6.60;;;;;;;23.21;44.46;99798.19;5091659;28;20385;-74
2021/08/23 01:19:59;;;;;;;6.93;6.22;;;;;;;23.11;44.77;99790.00;5090156;28;20035;-74
2021/08/23 01:22:26;;;;;;;8.23;6.60;;;;;;;23.09;44.68;99794.84;5091424;28;20089;-73
2021/08/23 01:24:53;;;;;;;7.47;6.70;;;;;;;23.08;44.78;99793.22;5091462;28;20020;-74
2021/08/23 01:27:21;;;;;;;7.68;6.05;;;;;;;23.07;44.83;99794.28;5089893;28;20511;-73
2021/08/23 01:29:55;;;;;;;8.50;6.45;;;;;;;23.00;44.98;99791.75;5091312;28;20020;-73
2021/08/23 01:32:23;;;;;;;8.73;7.03;;;;;;;22.95;45.13;99799.78;5091172;28;20507;-74
2021/08/23 01:34:50;;;;;;;11.05;6.75;;;;;;;22.65;45.32;99773.28;5090001;28;20055;-75
2021/08/23 01:37:20;;;;;;;7.55;6.72;;;;;;;22.77;45.48;99795.50;5091316;28;20028;-74
2021/08/23 01:39:46;;;;;;;9.07;6.50;;;;;;;22.74;45.66;99798.72;5091386;28;20036;-74
2021/08/23 01:42:12;;;;;;;7.97;6.70;;;;;;;22.72;45.74;99798.16;5091425;28;20089;-74
2021/08/23 01:44:38;;;;;;;8.18;6.78;;;;;;;22.13;45.99;99706.44;5091326;28;20028;-74
2021/08/23 01:47:03;;;;;;;7.45;6.75;;;;;;;22.34;45.96;99750.59;5091191;28;20077;-74
2021/08/23 01:49:29;;;;;;;9.65;6.65;;;;;;;22.55;46.28;99794.69;5091311;28;20405;-74
2021/08/23 01:51:55;;;;;;;11.20;7.10;;;;;;;22.55;46.21;99794.69;5091253;28;20058;-75
2021/08/23 01:54:22;;;;;;;7.75;7.05;;;;;;;22.15;46.39;99746.53;5090015;28;20028;-74
2021/08/23 01:56:47;;;;;;;8.25;6.47;;;;;;;22.45;46.51;99794.56;5091337;28;20518;-74
2021/08/23 01:59:13;;;;;;;7.47;6.78;;;;;;;22.19;46.66;99748.50;5091176;28;20114;-74
2021/08/23 02:01:38;;;;;;;8.40;6.90;;;;;;;22.42;46.69;99787.00;5090946;28;20020;-74
2021/08/23 02:04:03;;;;;;;8.90;6.70;;;;;;;22.19;46.66;99753.06;5089815;28;20027;-74
2021/08/23 02:06:29;;;;;;;8.10;7.13;;;;;;;22.32;46.64;99773.41;5092093;28;20165;-74
2021/08/23 02:08:55;;;;;;;8.75;7.03;;;;;;;22.44;46.69;99784.88;5094961;28;20081;-74
2021/08/23 02:11:24;;;;;;;10.35;7.47;;;;;;;22.15;46.64;99744.66;5094846;28;20397;-74
2021/08/23 02:13:49;;;;;;;9.60;7.40;;;;;;;22.16;47.05;99751.66;5094758;28;20157;-74
2021/08/23 02:16:15;;;;;;;7.35;6.57;;;;;;;22.26;47.17;99785.16;5094958;28;20060;-74
2021/08/23 02:18:41;;;;;;;9.93;7.35;;;;;;;21.90;47.36;99738.91;5093662;28;20035;-75
2021/08/23 02:21:06;;;;;;;10.00;7.75;;;;;;;22.14;47.35;99787.94;5094744;28;20024;-74
2021/08/23 02:23:32;;;;;;;7.70;6.90;;;;;;;22.09;47.63;99783.31;5094653;28;20038;-74
2021/08/23 02:25:58;;;;;;;10.48;7.40;;;;;;;21.83;47.71;99747.16;5093057;28;20058;-74
2021/08/23 02:28:23;;;;;;;10.38;8.15;;;;;;;21.86;47.92;99751.22;5094580;28;20020;-74
2021/08/23 02:30:49;;;;;;;8.55;7.43;;;;;;;21.63;47.91;99719.16;5094485;28;20098;-74
2021/08/23 02:33:14;;;;;;;9.85;7.30;;;;;;;21.84;47.78;99739.91;5094456;28;20032;-74
2021/08/23 02:35:39;;;;;;;7.45;6.75;;;;;;;22.12;47.82;99780.13;5094594;28;20408;-75
2021/08/23 02:38:07;;;;;;;12.07;7.85;;;;;;;21.75;47.72;99723.38;5094608;28;20027;-74
2021/08/23 02:40:33;;;;;;;9.70;7.47;;;;;;;22.11;47.75;99773.13;5094670;28;20127;-74
2021/08/23 02:42:58;;;;;;;9.00;7.53;;;;;;;22.09;47.69;99774.44;5094408;28;20039;-74
2021/08/23 02:45:24;;;;;;;8.18;7.15;;;;;;;21.94;47.91;99769.63;5094231;28;20412;-74
2021/08/23 02:47:49;;;;;;;9.68;7.75;;;;;;;22.01;48.09;99782.88;5093979;28;20393;-74
2021/08/23 02:50:14;;;;;;;8.35;7.43;;;;;;;21.94;48.11;99775.00;5094284;28;20020;-74
2021/08/23 02:52:40;;;;;;;12.43;8.23;;;;;;;21.19;48.24;99655.31;5094240;28;20027;-74
2021/08/23 02:55:06;;;;;;;8.57;7.40;;;;;;;21.92;48.35;99779.00;5093957;28;20035;-74
2021/08/23 02:57:32;;;;;;;8.57;7.15;;;;;;;21.43;48.38;99700.81;5092708;28;20035;-74
2021/08/23 02:59:57;;;;;;;10.13;7.53;;;;;;;21.90;48.59;99776.53;5093697;28;20028;-74
2021/08/23 03:02:23;;;;;;;11.63;7.50;;;;;;;21.89;48.48;99775.72;5092473;28;20077;-75
2021/08/23 03:04:48;;;;;;;8.80;7.88;;;;;;;21.86;48.37;99784.28;5093937;28;20072;-75
2021/08/23 03:07:14;;;;;;;9.15;8.07;;;;;;;21.44;48.59;99724.75;5093828;28;20477;-74
2021/08/23 03:09:39;;;;;;;9.73;7.75;;;;;;;21.76;48.68;99781.44;5093803;28;20062;-74
2021/08/23 03:12:05;;;;;;;7.93;7.10;;;;;;;21.69;48.85;99755.78;5093623;28;20023;-75
2021/08/23 03:14:30;;;;;;;10.63;7.45;;;;;;;21.40;48.77;99720.94;5093931;28;20024;-75
2021/08/23 03:16:56;;;;;;;9.88;8.20;;;;;;;21.77;49.05;99779.56;5093708;28;20023;-74
2021/08/23 03:19:21;;;;;;;10.60;8.05;;;;;;;21.66;49.06;99767.84;5092863;28;20454;-75
2021/08/23 03:21:47;;;;;;;10.93;8.02;;;;;;;21.82;48.94;99782.34;5093370;28;20028;-74
2021/08/23 03:24:12;;;;;;;9.20;8.10;;;;;;;21.81;49.21;99794.16;5093548;28;20089;-75
2021/08/23 03:26:39;;;;;;;10.73;8.02;;;;;;;21.46;49.24;99733.38;5093447;28;20039;-74
2021/08/23 03:29:05;;;;;;;10.02;8.48;;;;;;;21.78;49.37;99784.69;5093529;28;20026;-75
2021/08/23 03:31:31;;;;;;;10.95;8.02;;;;;;;21.77;49.62;99793.81;5093323;28;20025;-74
2021/08/23 03:33:56;;;;;;;9.40;8.35;;;;;;;21.46;49.38;99743.31;5093276;28;20414;-74
2021/08/23 03:36:23;;;;;;;10.10;8.80;;;;;;;21.76;49.43;99791.38;5093400;28;20028;-75
2021/08/23 03:38:48;;;;;;;11.27;8.25;;;;;;;21.35;49.68;99736.16;5092135;28;20024;-75
2021/08/23 03:41:15;;;;;;;9.82;7.65;;;;;;;21.77;49.74;99795.69;5093016;28;20030;-74
2021/08/23 03:43:40;;;;;;;9.27;7.85;;;;;;;21.42;49.84;99745.69;5093053;28;20028;-74
2021/08/23 03:46:06;;;;;;;9.35;8.30;;;;;;;21.74;50.01;99799.69;5092829;28;20020;-75
2021/08/23 03:48:31;;;;;;;10.48;7.85;;;;;;;21.77;49.99;99788.44;5093045;28;20028;-75
2021/08/23 03:50:57;;;;;;;8.93;8.05;;;;;;;21.48;50.03;99760.81;5093165;28;20136;-74
2021/08/23 03:53:22;;;;;;;9.40;8.02;;;;;;;21.74;50.11;99806.94;5093190;28;20032;-74
2021/08/23 03:55:48;;;;;;;11.73;8.70;;;;;;;21.69;50.07;99788.03;5092719;28;20476;-74
2021/08/23 03:58:13;;;;;;;13.00;9.68;;;;;;;21.45;50.09;99753.25;5092599;28;20093;-74
2021/08/23 04:00:39;;;;;;;12.90;10.13;;;;;;;21.24;50.31;99733.28;5092465;28;20024;-75
2021/08/23 04:03:04;;;;;;;10.73;9.57;;;;;;;21.23;50.17;99728.97;5092460;28;20481;-75
2021/08/23 04:05:29;;;;;;;10.13;9.00;;;;;;;21.31;50.25;99741.19;5092667;28;20039;-75
2021/08/23 04:07:55;;;;;;;10.90;8.30;;;;;;;21.71;50.27;99797.50;5092742;28;20024;-74
2021/08/23 04:10:21;;;;;;;11.75;8.63;;;;;;;21.73;50.08;99805.31;5092623;28;20499;-74
2021/08/23 04:12:46;;;;;;;18.73;9.15;;;;;;;21.75;50.18;99800.50;5092695;28;20511;-75
2021/08/23 04:15:12;;;;;;;13.90;8.98;;;;;;;21.32;50.14;99745.50;5092414;28;20031;-74
2021/08/23 04:17:37;;;;;;;11.93;8.68;;;;;;;21.74;50.42;99804.25;5091143;28;20032;-74
2021/08/23 04:20:03;;;;;;;9.90;8.88;;;;;;;21.44;50.35;99738.19;5092363;28;20024;-75
2021/08/23 04:22:29;;;;;;;13.75;9.23;;;;;;;21.84;50.31;99804.41;5092475;28;20036;-75
2021/08/23 04:24:54;;;;;;;14.27;9.02;;;;;;;21.49;50.18;99742.81;5092453;28;20466;-74
2021/08/23 04:27:20;;;;;;;10.25;8.85;;;;;;;21.91;50.27;99791.63;5092439;28;20107;-75
2021/08/23 04:29:45;;;;;;;11.23;9.48;;;;;;;21.92;50.30;99787.88;5092205;28;20472;-74
2021/08/23 04:32:11;;;;;;;10.77;9.63;;;;;;;22.00;50.35;99798.19;5092076;28;20032;-75
2021/08/23 04:34:36;;;;;;;13.15;9.98;;;;;;;21.88;50.28;99774.09;5091964;28;20028;-75
2021/08/23 04:37:03;;;;;;;13.60;9.57;;;;;;;22.03;50.29;99797.75;5090717;28;20089;-74
2021/08/23 04:39:33;;;;;;;12.75;10.48;;;;;;;21.67;50.51;99739.09;5091925;28;20058;-75
2021/08/23 04:42:00;;;;;;;18.63;10.40;;;;;;;22.03;50.47;99791.56;5092030;28;20063;-75
2021/08/23 04:44:26;;;;;;;14.13;9.48;;;;;;;22.10;50.37;99798.38;5091979;28;20192;-75
2021/08/23 04:46:51;;;;;;;15.18;9.43;;;;;;;22.17;50.51;99799.03;5090781;28;20401;-75
2021/08/23 04:49:17;;;;;;;11.38;9.43;;;;;;;22.26;50.44;99796.72;5091949;28;20035;-74
2021/08/23 04:51:43;;;;;;;14.10;9.98;;;;;;;22.32;50.37;99797.63;5091624;28;20092;-75
2021/08/23 04:54:08;;;;;;;13.75;9.25;;;;;;;22.41;50.30;99801.53;5091713;28;20484;-75
2021/08/23 04:56:34;;;;;;;10.82;9.68;;;;;;;22.36;50.22;99786.13;5091735;28;20028;-75
2021/08/23 04:58:59;;;;;;;14.25;9.73;;;;;;;22.23;50.19;99756.88;5091714;28;20531;-75
2021/08/23 05:01:25;;;;;;;15.98;11.20;;;;;;;22.44;49.93;99776.81;5089197;28;20047;-75
2021/08/23 05:03:50;;;;;;;12.27;10.27;;;;;;;22.30;50.20;99760.22;5082186;28;20039;-75
2021/08/23 05:06:15;;;;;;;12.98;10.82;;;;;;;22.64;50.32;99795.91;5088506;28;20039;-74
2021/08/23 05:08:41;;;;;;;14.00;9.70;;;;;;;22.67;50.46;99802.66;5091327;28;20119;-75
2021/08/23 05:11:07;;;;;;;15.50;10.48;;;;;;;22.73;50.63;99789.00;5091435;28;20028;-74
2021/08/23 05:13:32;;;;;;;15.27;10.20;;;;;;;22.54;50.73;99771.56;5091567;28;20078;-75
2021/08/23 05:15:58;;;;;;;13.45;9.20;;;;;;;22.79;50.77;99793.38;5091545;28;20028;-74
2021/08/23 05:18:23;;;;;;;14.13;9.80;;;;;;;22.84;50.78;99803.44;5091457;28;20032;-74
2021/08/23 05:20:53;;;;;;;13.00;9.43;;;;;;;22.63;50.80;99761.97;5091617;28;20031;-75
2021/08/23 05:23:18;;;;;;;13.25;10.00;;;;;;;22.45;50.91;99722.75;5091443;28;20028;-74
2021/08/23 05:25:44;;;;;;;12.50;9.35;;;;;;;22.90;51.23;99797.03;5091212;28;20031;-74
2021/08/23 05:28:09;;;;;;;15.75;10.20;;;;;;;22.80;51.22;99770.81;5091104;28;20503;-74
2021/08/23 05:30:35;;;;;;;14.40;9.68;;;;;;;22.71;51.28;99748.06;5089277;28;20476;-75
2021/08/23 05:33:01;;;;;;;17.20;10.05;;;;;;;22.88;51.47;99771.44;5088286;28;20412;-75
2021/08/23 05:35:27;;;;;;;10.95;9.43;;;;;;;23.11;51.56;99803.47;5091069;28;20078;-74
2021/08/23 05:37:53;;;;;;;13.35;9.52;;;;;;;22.89;51.57;99752.31;5091114;28;20056;-74
2021/08/23 05:40:22;;;;;;;11.77;10.00;;;;;;;23.31;51.54;99810.94;5091192;28;20066;-75
2021/08/23 05:42:48;;;;;;;12.57;11.00;;;;;;;23.34;51.67;99802.34;5090884;28;20671;-75
2021/08/23 05:45:13;;;;;;;13.00;9.45;;;;;;;23.31;51.64;99790.22;5095492;28;20016;-74
2021/08/23 05:47:39;;;;;;;13.25;9.63;;;;;;;23.07;51.36;99746.63;5093947;28;20420;-73
2021/08/23 05:50:05;;;;;;;11.90;8.93;;;;;;;23.42;51.90;99800.00;5095015;28;20062;-73
2021/08/23 05:52:30;;;;;;;13.68;9.52;;;;;;;23.53;51.83;99808.19;5087687;28;20053;-75
2021/08/23 05:54:56;;;;;;;11.25;9.23;;;;;;;23.54;51.95;99796.34;5095116;28;20550;-75
2021/08/23 05:57:24;;;;;;;11.48;9.20;;;;;;;23.34;51.80;99770.84;5095229;28;20028;-75
2021/08/23 05:59:49;;;;;;;12.23;9.95;;;;;;;23.73;51.88;99808.38;5093371;28;20028;-75
2021/08/23 06:02:15;;;;;;;10.85;9.30;;;;;;;23.80;51.67;99808.19;5083528;28;20031;-75
2021/08/23 06:04:40;;;;;;;11.45;9.32;;;;;;;23.49;51.69;99748.59;5094943;28;20513;-76
2021/08/23 06:07:09;;;;;;;11.38;9.48;;;;;;;23.55;51.73;99749.47;5095040;28;20192;-75
2021/08/23 06:09:35;;;;;;;13.00;9.57;;;;;;;23.61;51.63;99743.88;5094890;28;20134;-75
2021/08/23 06:12:00;;;;;;;15.52;9.63;;;;;;;24.02;51.72;99804.31;5077139;28;20551;-75
2021/08/23 06:14:26;;;;;;;13.82;9.43;;;;;;;24.07;51.84;99796.25;5080084;28;20067;-74
2021/08/23 06:16:51;;;;;;;9.50;8.50;;;;;;;24.06;51.65;99794.63;5094034;28;20441;-74
2021/08/23 06:19:17;;;;;;;9.90;7.65;;;;;;;24.27;51.29;99809.06;5088096;28;20114;-74
2021/08/23 06:21:43;;;;;;;9.00;8.02;;;;;;;24.34;51.17;99808.84;5086663;28;20028;-74
2021/08/23 06:24:08;;;;;;;9.75;8.75;;;;;;;24.31;50.64;99790.47;5086227;28;20027;-74
2021/08/23 06:26:34;;;;;;;8.85;8.05;;;;;;;24.07;50.42;99742.28;5092158;28;20036;-73
2021/08/23 06:28:59;;;;;;;9.00;8.07;;;;;;;24.42;50.79;99800.25;5081944;28;20024;-75
2021/08/23 06:31:25;;;;;;;12.77;9.10;;;;;;;24.44;50.57;99794.59;5091061;28;20024;-75
2021/08/23 06:33:50;;;;;;;10.18;8.40;;;;;;;24.28;50.43;99753.22;5090854;28;20542;-75
2021/08/23 06:36:16;;;;;;;11.45;8.43;;;;;;;24.54;50.42;99790.06;5086084;28;20439;-78
2021/08/23 06:38:41;;;;;;;15.45;8.77;;;;;;;24.70;50.28;99807.16;5092649;28;20023;-76
2021/08/23 06:41:07;;;;;;;9.38;8.38;;;;;;;24.76;50.11;99808.78;5091681;28;20028;-77
2021/08/23 06:43:32;;;;;;;10.82;9.07;;;;;;;24.80;49.92;99798.28;5091385;28;20055;-80
2021/08/23 06:45:57;;;;;;;8.73;7.82;;;;;;;24.58;50.22;99764.16;5092445;28;20161;-78
2021/08/23 06:48:23;;;;;;;9.60;8.60;;;;;;;24.60;50.03;99762.03;5090511;28;20115;-77
2021/08/23 06:50:48;;;;;;;12.38;8.90;;;;;;;24.80;49.88;99782.88;5089795;28;20381;-79
2021/08/23 06:53:14;;;;;;;10.85;8.35;;;;;;;25.01;49.85;99806.19;5084167;28;20028;-78
2021/08/23 06:55:39;;;;;;;11.93;10.10;;;;;;;25.10;49.85;99805.66;5073604;28;20032;-79
2021/08/23 06:58:05;;;;;;;11.73;9.30;;;;;;;24.89;49.71;99761.56;5088459;28;20052;-79
2021/08/23 07:00:30;;;;;;;10.52;9.52;;;;;;;25.23;49.63;99807.84;5087815;28;20107;-79
2021/08/23 07:02:56;;;;;;;8.98;8.07;;;;;;;25.37;49.31;99811.69;5084555;28;20054;-77
2021/08/23 07:05:22;;;;;;;11.27;8.05;;;;;;;25.39;49.56;99797.91;5080150;28;20107;-78
2021/08/23 07:07:49;;;;;;;10.20;8.90;;;;;;;25.55;49.33;99813.88;5093883;28;20124;-79
2021/08/23 07:10:14;;;;;;;10.55;8.10;;;;;;;25.67;49.23;99812.81;5088786;28;20020;-77
2021/08/23 07:12:42;;;;;;;12.52;8.85;;;;;;;25.34;48.87;99742.75;5080060;28;20465;-79
2021/08/23 07:15:08;;;;;;;9.45;8.50;;;;;;;25.57;49.22;99781.97;5090871;28;20085;-79
2021/08/23 07:17:34;;;;;;;10.05;8.73;;;;;;;25.33;49.03;99770.88;5092664;28;20020;-79
2021/08/23 07:19:59;;;;;;;10.82;8.65;;;;;;;25.67;48.81;99805.50;5095872;28;20035;-78
2021/08/23 07:22:25;;;;;;;12.07;10.00;;;;;;;25.73;48.97;99801.72;5092476;28;20099;-79
2021/08/23 07:24:51;;;;;;;9.30;8.00;;;;;;;25.79;48.98;99806.06;5080008;28;20037;-75
2021/08/23 07:27:17;;;;;;;10.82;9.02;;;;;;;25.89;48.53;99800.63;5079370;28;20028;-74
2021/08/23 07:29:42;;;;;;;11.32;9.32;;;;;;;25.95;48.13;99798.72;5092698;28;20035;-75
2021/08/23 07:32:08;;;;;;;9.35;8.25;;;;;;;26.04;47.68;99799.81;5090445;28;20112;-75
2021/08/23 07:34:34;;;;;;;9.90;8.85;;;;;;;26.11;47.26;99794.13;5091528;28;20469;-75
2021/08/23 07:37:00;;;;;;;11.07;8.18;;;;;;;25.96;47.04;99771.41;5092731;28;20024;-74
2021/08/23 07:39:25;;;;;;;10.65;8.20;;;;;;;25.95;46.70;99775.19;5087173;28;20034;-75
2021/08/23 07:41:51;;;;;;;10.25;7.85;;;;;;;26.08;46.58;99770.31;5074138;28;20024;-74
2021/08/23 07:44:16;;;;;;;10.75;7.88;;;;;;;25.97;45.67;99735.13;5072166;28;20111;-74
2021/08/23 07:46:42;;;;;;;8.23;7.43;;;;;;;26.39;45.47;99790.03;5074173;28;20028;-74
2021/08/23 07:49:07;;;;;;;12.55;7.25;;;;;;;26.47;45.48;99794.88;5092077;28;20131;-74
2021/08/23 07:51:33;;;;;;;9.73;7.65;;;;;;;26.57;45.22;99781.28;5091066;28;20111;-75
2021/08/23 07:53:58;;;;;;;8.15;6.82;;;;;;;26.65;43.95;99793.44;5092534;28;20024;-75
2021/08/23 07:56:24;;;;;;;9.55;8.13;;;;;;;26.53;43.72;99748.53;5092151;28;20028;-75
2021/08/23 07:58:49;;;;;;;9.70;8.43;;;;;;;26.80;43.47;99780.66;5090482;28;20028;-76
2021/08/23 08:01:15;;;;;;;14.75;13.35;;;;;;;26.98;43.35;99784.66;5088893;28;20050;-76
2021/08/23 08:03:40;;;;;;;8.25;7.45;;;;;;;26.96;42.13;99773.25;5091622;28;20028;-75
2021/08/23 08:06:06;;;;;;;9.18;7.75;;;;;;;27.05;41.89;99790.56;5090453;28;20035;-75
2021/08/23 08:08:31;;;;;;;9.93;8.75;;;;;;;27.12;42.01;99788.34;5086989;28;20117;-73
2021/08/23 08:10:57;;;;;;;9.38;8.38;;;;;;;27.20;41.79;99789.66;5092243;28;20031;-73
2021/08/23 08:13:23;;;;;;;11.40;6.63;;;;;;;27.25;41.39;99786.09;5092227;28;20032;-73
2021/08/23 08:15:49;;;;;;;7.38;6.03;;;;;;;27.00;40.39;99733.69;5092153;28;20439;-73
2021/08/23 08:18:15;;;;;;;7.53;6.60;;;;;;;27.36;39.86;99784.94;5088965;28;20042;-74
2021/08/23 08:20:41;;;;;;;7.25;6.53;;;;;;;27.36;40.02;99787.66;5091969;28;20024;-75
2021/08/23 08:23:06;;;;;;;8.25;6.72;;;;;;;27.23;39.72;99737.59;5091927;28;20419;-78
2021/08/23 08:25:31;;;;;;;10.30;7.30;;;;;;;27.40;39.72;99745.31;5092025;28;20040;-77
2021/08/23 08:27:57;;;;;;;7.72;6.75;;;;;;;27.32;39.33;99718.81;5084841;28;20035;-78
2021/08/23 08:30:23;;;;;;;8.20;7.35;;;;;;;27.62;38.93;99751.16;5071469;28;20021;-79
2021/08/23 08:32:49;;;;;;;10.45;7.20;;;;;;;27.72;38.12;99739.41;5070066;28;20481;-78
2021/08/23 08:35:14;;;;;;;9.80;7.28;;;;;;;27.67;38.17;99732.13;5071340;28;20063;-78
2021/08/23 08:37:40;;;;;;;11.07;7.13;;;;;;;27.96;37.72;99769.28;5071063;28;20035;-77
2021/08/23 08:40:07;;;;;;;9.00;8.07;;;;;;;27.76;37.56;99724.97;5071238;28;20067;-78
2021/08/23 08:42:32;;;;;;;9.38;7.80;;;;;;;27.93;37.64;99745.41;5084025;28;20032;-79
2021/08/23 08:44:58;;;;;;;9.63;8.23;;;;;;;28.25;37.06;99769.28;5091250;28;20031;-78
2021/08/23 08:47:23;;;;;;;10.60;9.10;;;;;;;28.27;37.63;99732.59;5079713;28;20029;-78
2021/08/23 08:49:51;;;;;;;10.00;8.32;;;;;;;28.62;37.47;99735.97;5071546;28;20029;-78
2021/08/23 08:52:20;;;;;;;8.15;7.25;;;;;;;28.53;37.04;99715.97;5081020;28;20089;-79
2021/08/23 08:54:45;;;;;;;8.20;6.97;;;;;;;28.90;36.23;99754.06;5091810;28;20177;-79
2021/08/23 08:57:11;;;;;;;9.18;8.27;;;;;;;29.04;35.92;99754.16;5091398;28;20419;-79
2021/08/23 08:59:36;;;;;;;10.38;8.73;;;;;;;29.14;35.85;99734.97;5091334;28;20027;-78
2021/08/23 09:02:04;;;;;;;10.32;7.05;;;;;;;29.28;35.31;99751.34;5099817;28;20027;-79
2021/08/23 09:04:35;;;;;;;7.38;6.47;;;;;;;29.31;35.17;99742.59;5091531;28;20519;-79
2021/08/23 09:07:00;;;;;;;8.15;7.22;;;;;;;29.31;35.17;99743.41;5091206;28;20110;-78
2021/08/23 09:09:27;;;;;;;7.53;6.72;;;;;;;29.49;34.62;99735.53;5091116;28;20161;-78
2021/08/23 09:12:01;;;;;;;10.23;7.28;;;;;;;29.36;34.67;99697.09;5089281;28;20031;-79
2021/08/23 09:14:27;;;;;;;8.48;7.50;;;;;;;29.80;34.56;99741.28;5090632;28;20485;-78
2021/08/23 09:16:54;;;;;;;7.88;7.07;;;;;;;29.91;34.43;99739.97;5090578;28;20034;-78
2021/08/23 09:19:28;;;;;;;10.50;9.50;;;;;;;30.00;33.73;99736.25;5091369;28;20028;-79
2021/08/23 09:22:05;;;;;;;7.82;6.93;;;;;;;29.79;33.82;99693.38;5089478;28;20028;-78
2021/08/23 09:24:35;;;;;;;8.75;6.82;;;;;;;30.29;33.89;99729.72;5091024;28;20034;-74
2021/08/23 09:27:03;;;;;;;7.93;7.13;;;;;;;30.47;33.51;99728.81;5080278;28;20073;-75
2021/08/23 09:29:28;;;;;;;9.68;7.35;;;;;;;30.63;32.89;99715.69;5071832;28;20036;-74
2021/08/23 09:31:58;;;;;;;7.93;7.03;;;;;;;30.79;31.88;99724.34;5069365;28;20024;-75
2021/08/23 09:34:23;;;;;;;9.10;6.53;;;;;;;30.92;32.46;99718.84;5070740;28;20028;-74
2021/08/23 09:36:58;;;;;;;8.15;6.78;;;;;;;31.15;32.17;99719.69;5070454;28;20549;-75
2021/08/23 09:39:28;;;;;;;7.50;6.70;;;;;;;31.29;32.11;99711.47;5070702;28;20103;-75
2021/08/23 09:42:06;;;;;;;8.23;6.47;;;;;;;31.41;31.41;99717.16;5070832;28;20036;-74
2021/08/23 09:44:37;;;;;;;7.43;6.80;;;;;;;31.35;31.48;99717.59;5071013;28;20097;-76
2021/08/23 09:47:03;;;;;;;7.85;6.53;;;;;;;31.53;31.59;99711.13;5075180;28;20119;-75
2021/08/23 09:49:36;;;;;;;7.85;7.03;;;;;;;31.72;31.14;99708.19;5091099;28;20106;-75
2021/08/23 09:52:02;;;;;;;10.57;8.32;;;;;;;31.84;31.03;99689.28;5091072;28;20050;-75
2021/08/23 09:54:29;;;;;;;10.93;8.68;;;;;;;32.16;30.65;99702.59;5089696;28;20062;-77
2021/08/23 09:56:56;;;;;;;6.72;6.03;;;;;;;32.26;29.74;99717.13;5090719;28;20024;-76
2021/08/23 09:59:38;;;;;;;8.68;7.88;;;;;;;32.31;29.63;99697.84;5089628;28;20407;-77
2021/08/23 10:02:03;;;;;;;7.40;5.95;;;;;;;32.38;29.28;99690.78;5090707;28;20048;-75
2021/08/23 10:04:30;;;;;;;6.60;6.00;;;;;;;32.59;29.15;99692.91;5073844;28;20064;-75
2021/08/23 10:06:56;;;;;;;7.88;6.50;;;;;;;32.81;28.57;99685.41;5078653;28;20040;-76
2021/08/23 10:09:32;;;;;;;6.60;6.00;;;;;;;32.72;28.21;99643.56;5090015;28;20030;-76
2021/08/23 10:11:58;;;;;;;6.38;5.72;;;;;;;33.10;27.87;99682.00;5090971;28;20023;-76
2021/08/23 10:14:25;;;;;;;10.52;9.38;;;;;;;33.09;27.67;99644.03;5089016;28;20031;-77
2021/08/23 10:16:51;;;;;;;5.95;5.32;;;;;;;33.09;26.98;99668.63;5088737;28;20126;-77
2021/08/23 10:19:17;;;;;;;7.18;5.43;;;;;;;32.99;26.55;99667.06;5090681;28;20528;-76
2021/08/23 10:21:48;;;;;;;7.15;5.95;;;;;;;33.08;26.95;99659.63;5090678;28;20024;-74
2021/08/23 10:24:29;;;;;;;7.22;6.57;;;;;;;33.31;26.52;99659.44;5089114;28;20020;-76
2021/08/23 10:26:56;;;;;;;8.93;6.25;;;;;;;33.50;26.34;99659.91;5071016;28;20103;-76
2021/08/23 10:29:22;;;;;;;8.23;6.43;;;;;;;33.71;26.50;99654.50;5074087;28;20035;-75
2021/08/23 10:31:49;;;;;;;11.38;5.90;;;;;;;33.99;25.62;99652.13;5074536;28;20104;-75
2021/08/23 10:34:17;;;;;;;7.95;4.07;;;;;;;34.13;24.72;99640.94;5094119;28;20085;-76
2021/08/23 10:36:44;;;;;;;5.65;4.03;;;;;;;34.14;23.99;99634.31;5094094;28;20020;-75
2021/08/23 10:39:17;;;;;;;8.15;4.47;;;;;;;34.44;23.48;99643.34;5094279;28;20035;-76
2021/08/23 10:41:43;;;;;;;8.15;5.88;;;;;;;34.48;23.28;99634.13;5093825;28;20024;-75
2021/08/23 10:44:08;;;;;;;9.30;6.25;;;;;;;34.28;23.58;99585.53;5073941;28;20016;-75
2021/08/23 10:46:36;;;;;;;5.43;4.43;;;;;;;34.75;22.93;99624.53;5073546;28;20021;-75
2021/08/23 10:49:16;;;;;;;7.88;5.10;;;;;;;34.83;22.78;99612.69;5073673;28;20540;-72
2021/08/23 10:51:41;;;;;;;8.25;4.57;;;;;;;34.97;22.51;99631.63;5093818;28;20400;-75
2021/08/23 10:54:38;;;;;;;5.13;4.63;;;;;;;34.95;22.61;99617.44;5073850;28;20028;-75
2021/08/23 10:57:06;;;;;;;9.00;6.70;;;;;;;35.00;22.74;99623.53;5073419;28;20508;-75
2021/08/23 10:59:38;;;;;;;7.47;6.68;;;;;;;34.63;22.56;99561.41;5073415;28;20029;-74
2021/08/23 11:02:04;;;;;;;7.00;6.00;;;;;;;35.11;22.60;99604.69;5072546;28;20032;-74
2021/08/23 11:04:39;;;;;;;9.20;5.28;;;;;;;35.31;22.22;99613.97;5074261;28;20032;-75
2021/08/23 11:07:06;;;;;;;7.10;4.93;;;;;;;35.12;21.80;99567.06;5081422;28;20069;-75
2021/08/23 11:09:36;;;;;;;6.30;5.68;;;;;;;35.41;21.91;99604.53;5092052;28;20032;-76
2021/08/23 11:12:12;;;;;;;5.90;5.10;;;;;;;35.45;22.10;99597.22;5092427;28;20435;-74
2021/08/23 11:14:45;;;;;;;7.10;6.40;;;;;;;35.64;21.98;99591.94;5092695;28;20045;-74
2021/08/23 11:17:10;;;;;;;6.70;6.00;;;;;;;35.39;21.95;99532.69;5092656;28;20035;-75
2021/08/23 11:19:40;;;;;;;5.25;4.10;;;;;;;36.10;21.13;99592.63;5086440;28;20416;-76
2021/08/23 11:22:06;;;;;;;5.60;4.95;;;;;;;36.20;21.36;99603.94;5091001;28;20089;-74
2021/08/23 11:24:34;;;;;;;9.82;5.03;;;;;;;36.24;20.64;99593.06;5086405;28;20027;-75
2021/08/23 11:27:02;;;;;;;7.32;5.45;;;;;;;36.14;21.23;99563.31;5084709;28;20024;-75